Time;durP1;ratioP1;P1;durP2;ratioP2;P2;SDS_P1;SDS_P2;PMS_P1;PMS_P2;Temp;Humidity;BMP_temperature;BMP_pressure;BME280_temperature;BME280_humidity;BME280_pressure;Samples;Min_cycle;Max_cycle;Signal;HPM_P1;HPM_P2
2024/04/12 00:02:08;;;;;;;;;16.25;14.00;;;;;-143.90;100.00;76838.88;5274177;26;104474;-72
2024/04/12 00:04:36;;;;;;;;;13.00;12.00;;;;;-143.90;100.00;76834.75;5281154;26;99043;-72
2024/04/12 00:07:13;;;;;;;;;14.50;12.50;;;;;-143.90;100.00;76843.03;5272451;26;98825;-72
2024/04/12 00:09:43;;;;;;;;;12.00;11.50;;;;;-143.90;100.00;76843.03;5280524;26;99324;-72
2024/04/12 00:12:11;;;;;;;;;9.50;9.50;;;;;-143.90;100.00;76849.22;5278182;26;99951;-72
2024/04/12 00:14:43;;;;;;;;;12.75;11.75;;;;;-143.90;100.00;76853.38;5281110;26;98917;-73
2024/04/12 00:17:15;;;;;;;;;8.75;8.50;;;;;-143.90;100.00;76859.56;5267301;26;98269;-72
2024/04/12 00:19:45;;;;;;;;;14.75;12.00;;;;;-143.90;100.00;76855.44;5275621;26;99229;-72
2024/04/12 00:22:14;;;;;;;;;17.50;14.00;;;;;-143.90;100.00;76857.50;5277438;26;99775;-72
2024/04/12 00:24:41;;;;;;;;;14.75;14.50;;;;;-143.90;100.00;76861.63;5277770;26;98267;-72
2024/04/12 00:27:09;;;;;;;;;15.00;14.00;;;;;-143.90;100.00;76857.50;5270058;26;98410;-72
2024/04/12 00:29:36;;;;;;;;;11.75;10.50;;;;;-143.90;100.00;76861.63;5276559;26;98159;-73
2024/04/12 00:32:16;;;;;;;;;10.75;10.75;;;;;-143.90;100.00;76867.84;5279071;26;99784;-72
2024/04/12 00:34:51;;;;;;;;;13.00;12.25;;;;;-143.90;100.00;76882.31;5276088;26;98140;-72
2024/04/12 00:37:22;;;;;;;;;12.25;8.25;;;;;-143.90;100.00;76874.06;5276590;26;99870;-72
2024/04/12 00:39:49;;;;;;;;;9.50;9.00;;;;;-143.90;100.00;76880.25;5273835;26;102121;-72
2024/04/12 00:42:26;;;;;;;;;16.00;15.50;;;;;-143.90;100.00;76886.47;5279228;26;99927;-72
2024/04/12 00:44:58;;;;;;;;;37.75;32.75;;;;;-143.90;100.00;76890.59;5273799;26;98473;-72
2024/04/12 00:47:27;;;;;;;;;44.33;36.67;;;;;-143.90;100.00;76903.00;5273255;26;99765;-72
2024/04/12 00:49:56;;;;;;;;;34.00;30.00;;;;;-143.90;100.00;76911.28;5271501;26;98171;-71
2024/04/12 00:52:27;;;;;;;;;25.25;24.25;;;;;-143.90;100.00;76917.47;5275879;26;110358;-72
2024/04/12 00:55:09;;;;;;;;;30.00;28.00;;;;;-143.90;100.00;76923.69;5272224;26;98469;-72
2024/04/12 00:57:41;;;;;;;;;32.33;31.00;;;;;-143.90;100.00;76921.63;5273085;26;98497;-72
2024/04/12 01:00:09;;;;;;;;;32.00;28.50;;;;;-143.90;100.00;76923.69;5281772;26;98345;-73
2024/04/12 01:02:41;;;;;;;;;24.75;19.50;;;;;-143.90;100.00;76925.75;5274167;26;104355;-73
2024/04/12 01:05:14;;;;;;;;;22.00;17.00;;;;;-143.90;100.00;76923.69;5270849;26;101134;-73
2024/04/12 01:07:48;;;;;;;;;20.75;16.25;;;;;-143.90;100.00;76921.63;5275423;26;98296;-72
2024/04/12 01:10:24;;;;;;;;;16.75;15.25;;;;;-143.90;100.00;76929.91;5280035;26;98173;-72
2024/04/12 01:12:57;;;;;;;;;14.25;12.25;;;;;-143.90;100.00;76929.91;5267682;26;99747;-73
2024/04/12 01:15:36;;;;;;;;;18.75;17.75;;;;;-143.90;100.00;76934.03;5300169;26;98268;-72
2024/04/12 01:18:11;;;;;;;;;24.25;21.00;;;;;-143.90;100.00;76938.16;5275168;26;98137;-73
2024/04/12 01:20:43;;;;;;;;;21.25;18.00;;;;;-143.90;100.00;76940.25;5275320;26;98328;-73
2024/04/12 01:23:15;;;;;;;;;24.00;22.00;;;;;-143.90;100.00;76950.56;5268725;26;104305;-72
2024/04/12 01:25:44;;;;;;;;;19.00;17.50;;;;;-143.90;100.00;76948.50;5276651;26;99322;-72
2024/04/12 01:28:14;;;;;;;;;20.75;16.50;;;;;-143.90;100.00;76950.56;5279640;26;104951;-73
2024/04/12 01:30:40;;;;;;;;;7.25;3.25;;;;;-143.90;100.00;76954.72;5275073;26;98332;-73
2024/04/12 01:33:08;;;;;;;;;29.00;22.25;;;;;-143.90;100.00;76952.66;5267200;26;100798;-73
2024/04/12 01:35:36;;;;;;;;;22.00;21.50;;;;;-143.90;100.00;76969.19;5276191;26;98148;-73
2024/04/12 01:38:16;;;;;;;;;17.00;14.75;;;;;-143.90;100.00;76967.13;5279156;26;98249;-73
2024/04/12 01:40:56;;;;;;;;;19.25;16.75;;;;;-143.90;100.00;76967.13;5277952;26;98362;-73
2024/04/12 01:43:26;;;;;;;;;19.00;17.50;;;;;-143.90;100.00;76977.47;5271196;26;100064;-73
2024/04/12 01:45:54;;;;;;;;;22.25;20.75;;;;;-143.90;100.00;76977.47;5274009;26;100286;-73
2024/04/12 01:48:28;;;;;;;;;11.25;10.50;;;;;-143.90;100.00;76975.41;5277937;26;98077;-72
2024/04/12 01:50:55;;;;;;;;;17.25;13.75;;;;;-143.90;100.00;76973.31;5275175;26;98231;-72
2024/04/12 01:53:22;;;;;;;;;34.67;31.00;;;;;-143.90;100.00;76971.25;5251779;26;100691;-72
2024/04/12 01:55:50;;;;;;;;;32.67;32.00;;;;;-143.90;100.00;76967.13;5280996;26;98375;-72
2024/04/12 01:58:19;;;;;;;;;30.00;25.67;;;;;-143.90;100.00;76967.13;5277469;26;98268;-72
2024/04/12 02:00:49;;;;;;;;;22.00;21.25;;;;;-143.90;100.00;76960.91;5280097;26;99088;-73
2024/04/12 02:03:17;;;;;;;;;17.00;17.00;;;;;-143.90;100.00;76952.66;5260929;26;103095;-72
2024/04/12 02:05:48;;;;;;;;;15.00;13.75;;;;;-143.90;100.00;76956.78;5276814;26;98182;-72
2024/04/12 02:08:19;;;;;;;;;13.00;13.00;;;;;-143.90;100.00;76952.66;5277241;26;98257;-73
2024/04/12 02:10:48;;;;;;;;;11.75;10.75;;;;;-143.90;100.00;76948.50;5284343;26;98980;-72
2024/04/12 02:13:17;;;;;;;;;23.00;18.75;;;;;-143.90;100.00;76938.16;5269706;26;99768;-72
2024/04/12 02:15:53;;;;;;;;;14.00;13.00;;;;;-143.90;100.00;76934.03;5279782;26;98319;-72
2024/04/12 02:18:22;;;;;;;;;15.50;11.50;;;;;-143.90;100.00;76921.63;5274282;26;97918;-73
2024/04/12 02:20:52;;;;;;;;;13.00;13.00;;;;;-143.90;100.00;76917.47;5279496;26;99567;-73
2024/04/12 02:23:20;;;;;;;;;17.00;14.25;;;;;-143.90;100.00;76917.47;5271585;26;99951;-73
2024/04/12 02:25:49;;;;;;;;;15.50;13.00;;;;;-143.90;100.00;76913.34;5281426;26;98324;-72
2024/04/12 02:28:17;;;;;;;;;14.25;13.00;;;;;-143.90;100.00;76911.28;5278762;26;98271;-73
2024/04/12 02:31:01;;;;;;;;;15.25;13.50;;;;;-143.90;100.00;76909.22;5280152;26;100130;-73
2024/04/12 02:33:31;;;;;;;;;16.00;15.00;;;;;-143.90;100.00;76909.22;5272456;26;99911;-73
2024/04/12 02:36:17;;;;;;;;;17.50;14.75;;;;;-143.90;100.00;76900.94;5276388;26;99936;-73
2024/04/12 02:38:49;;;;;;;;;11.00;10.25;;;;;-143.90;100.00;76898.88;5277095;26;99120;-73
2024/04/12 02:41:17;;;;;;;;;13.50;13.00;;;;;-143.90;100.00;76905.06;5273940;26;103051;-73
2024/04/12 02:43:51;;;;;;;;;24.50;21.50;;;;;-143.90;100.00;76900.94;5280074;26;99753;-73
2024/04/12 02:46:19;;;;;;;;;29.00;26.75;;;;;-143.90;100.00;76905.06;5277172;26;97989;-73
2024/04/12 02:48:49;;;;;;;;;22.25;18.00;;;;;-143.90;100.00;76905.06;5275451;26;98008;-73
2024/04/12 02:51:22;;;;;;;;;23.00;19.25;;;;;-143.90;100.00;76905.06;5274629;26;98362;-73
2024/04/12 02:53:50;;;;;;;;;23.25;20.25;;;;;-143.90;100.00;76905.06;5278938;26;99927;-73
2024/04/12 02:56:24;;;;;;;;;18.25;17.25;;;;;-143.90;100.00;76917.47;5279936;26;99294;-73
2024/04/12 02:58:54;;;;;;;;;13.50;13.50;;;;;-143.90;100.00;76929.91;5283573;26;98567;-73
2024/04/12 03:01:23;;;;;;;;;19.25;17.50;;;;;-143.90;100.00;76931.97;5275650;26;98575;-73
2024/04/12 03:03:58;;;;;;;;;11.50;11.00;;;;;-143.90;100.00;76936.09;5278181;26;100821;-73
2024/04/12 03:06:31;;;;;;;;;13.50;13.00;;;;;-143.90;100.00;76938.16;5281658;26;98445;-71
2024/04/12 03:09:00;;;;;;;;;19.50;15.75;;;;;-143.90;100.00;76940.25;5273554;26;98430;-72
2024/04/12 03:11:38;;;;;;;;;17.50;15.00;;;;;-143.90;100.00;76940.25;5283081;26;98228;-73
2024/04/12 03:14:12;;;;;;;;;18.75;17.50;;;;;-143.90;100.00;76954.72;5275978;26;99754;-72
2024/04/12 03:16:46;;;;;;;;;11.00;11.00;;;;;-143.90;100.00;76967.13;5282735;26;98043;-73
2024/04/12 03:19:18;;;;;;;;;16.25;14.00;;;;;-143.90;100.00;76969.19;5267218;26;98023;-72
2024/04/12 03:21:50;;;;;;;;;15.50;12.50;;;;;-143.90;100.00;76967.13;5280080;26;99819;-72
2024/04/12 03:24:18;;;;;;;;;0.00;0.00;;;;;-143.90;100.00;76963.00;5281579;26;99737;-72
2024/04/12 03:26:47;;;;;;;;;7.00;6.00;;;;;-143.90;100.00;76954.72;5276715;26;98313;-72
2024/04/12 03:29:16;;;;;;;;;13.50;12.00;;;;;-143.90;100.00;76946.44;5264826;26;99993;-72
2024/04/12 03:31:46;;;;;;;;;16.50;15.50;;;;;-143.90;100.00;76944.38;5272592;26;98852;-72
2024/04/12 03:34:14;;;;;;;;;15.25;13.25;;;;;-143.90;100.00;76938.16;5272111;26;99971;-72
2024/04/12 03:41:59;;;;;;;;;12.00;10.50;;;;;-143.90;100.00;76931.97;5269408;26;98288;-72
2024/04/12 03:44:34;;;;;;;;;15.75;13.50;;;;;-143.90;100.00;76931.97;5270613;26;102311;-73
2024/04/12 03:47:07;;;;;;;;;15.50;13.00;;;;;-143.90;100.00;76931.97;5264381;26;98255;-72
2024/04/12 03:49:39;;;;;;;;;22.00;19.25;;;;;-143.90;100.00;76923.69;5277599;26;98893;-72
2024/04/12 03:52:14;;;;;;;;;22.25;18.00;;;;;-143.90;100.00;76931.97;5279354;26;100904;-73
2024/04/12 03:54:45;;;;;;;;;22.00;21.00;;;;;-143.90;100.00;76927.81;5266112;26;106762;-72
2024/04/12 03:57:14;;;;;;;;;15.50;13.00;;;;;-143.90;100.00;76929.91;5269991;26;98470;-73
2024/04/12 03:59:44;;;;;;;;;17.00;15.75;;;;;-143.90;100.00;76929.91;5276361;26;98468;-73
2024/04/12 04:02:15;;;;;;;;;17.25;16.25;;;;;-143.90;100.00;76929.91;5248024;26;101070;-73
2024/04/12 04:04:47;;;;;;;;;16.75;16.00;;;;;-143.90;100.00;76923.69;5270273;26;104547;-73
2024/04/12 04:07:16;;;;;;;;;17.00;13.75;;;;;-143.90;100.00;76917.47;5259562;26;98294;-73
2024/04/12 04:09:46;;;;;;;;;13.25;12.00;;;;;-143.90;100.00;76917.47;5280345;26;98126;-73
2024/04/12 04:12:15;;;;;;;;;25.00;22.50;;;;;-143.90;100.00;76913.34;5279074;26;98322;-73
2024/04/12 04:14:50;;;;;;;;;44.00;36.33;;;;;-143.90;100.00;76913.34;5276111;26;99996;-73
2024/04/12 04:17:29;;;;;;;;;53.00;43.00;;;;;-143.90;100.00;76905.06;5263535;26;98126;-72
2024/04/12 04:20:05;;;;;;;;;53.00;41.33;;;;;-143.90;100.00;76915.41;5273540;26;98868;-73
2024/04/12 04:25:07;;;;;;;;;47.33;36.33;;;;;-143.90;100.00;76913.34;5264928;26;99929;-74
2024/04/12 04:27:36;;;;;;;;;41.33;36.33;;;;;-143.90;100.00;76913.34;5273051;26;98232;-73
2024/04/12 04:30:05;;;;;;;;;41.67;37.33;;;;;-143.90;100.00;76917.47;5281863;26;98179;-72
2024/04/12 04:32:32;;;;;;;;;39.67;35.00;;;;;-143.90;100.00;76921.63;5273427;26;98144;-72
2024/04/12 04:35:05;;;;;;;;;33.67;32.33;;;;;-143.90;100.00;76921.63;5265916;26;99802;-73
2024/04/12 04:37:44;;;;;;;;;38.00;34.33;;;;;-143.90;100.00;76915.41;5273189;26;98768;-73
2024/04/12 04:40:16;;;;;;;;;52.67;43.33;;;;;-143.90;100.00;76929.91;5282002;26;101799;-73
2024/04/12 04:42:45;;;;;;;;;52.67;43.00;;;;;-143.90;100.00;76921.63;5267562;26;98788;-73
2024/04/12 04:45:17;;;;;;;;;45.67;38.00;;;;;-143.90;100.00;76921.63;5270062;26;99776;-73
2024/04/12 04:47:45;;;;;;;;;46.33;37.00;;;;;-143.90;100.00;76925.75;5279049;26;98213;-73
2024/04/12 04:50:17;;;;;;;;;35.67;32.67;;;;;-143.90;100.00;76913.34;5276575;26;98034;-73
2024/04/12 04:52:47;;;;;;;;;35.00;29.75;;;;;-143.90;100.00;76896.81;5269870;26;97964;-72
2024/04/12 04:55:13;;;;;;;;;30.00;27.50;;;;;-143.90;100.00;76884.38;5266315;26;99875;-72
2024/04/12 04:57:44;;;;;;;;;30.50;27.25;;;;;-143.90;100.00;76874.06;5286763;26;98077;-73
2024/04/12 05:00:18;;;;;;;;;25.00;22.75;;;;;-143.90;100.00;76863.72;5272795;26;98367;-73
2024/04/12 05:02:50;;;;;;;;;26.25;18.75;;;;;-143.90;100.00;76849.22;5276974;26;98341;-73
2024/04/12 05:05:23;;;;;;;;;20.75;18.00;;;;;-143.90;100.00;76838.88;5265536;26;100430;-73
2024/04/12 05:07:58;;;;;;;;;21.50;19.25;;;;;-143.90;100.00;76814.06;5281397;26;103050;-73
2024/04/12 05:10:33;;;;;;;;;23.25;19.25;;;;;-143.90;100.00;76793.38;5268949;26;98126;-73
2024/04/12 05:13:03;;;;;;;;;23.25;20.75;;;;;-143.90;100.00;76772.72;5268928;26;99149;-73
2024/04/12 05:18:12;;;;;;;;;25.00;21.00;;;;;-143.90;100.00;76731.34;5267009;26;98410;-74
2024/04/12 05:20:42;;;;;;;;;29.25;22.25;;;;;-143.90;100.00;76710.66;5271211;26;99841;-73
2024/04/12 05:23:15;;;;;;;;;26.25;21.50;;;;;-143.90;100.00;76689.97;5259615;26;98359;-73
2024/04/12 05:25:50;;;;;;;;;25.00;21.75;;;;;-143.90;100.00;76661.03;5276270;26;104574;-73
2024/04/12 05:28:19;;;;;;;;;26.50;21.00;;;;;-143.90;100.00;76632.06;5274696;26;97942;-72
2024/04/12 05:30:49;;;;;;;;;39.00;31.00;;;;;-143.90;100.00;76603.13;5272156;26;98390;-73
2024/04/12 05:33:19;;;;;;;;;26.25;22.75;;;;;-143.90;100.00;76549.34;5274707;26;99125;-73
2024/04/12 05:35:46;;;;;;;;;37.50;33.50;;;;;-143.90;100.00;76481.09;5270368;26;99467;-73
2024/04/12 05:38:14;;;;;;;;;38.75;34.50;;;;;-143.90;100.00;76394.25;5283615;26;98015;-73
2024/04/12 05:40:45;;;;;;;;;55.75;38.00;;;;;-143.90;100.00;76309.44;5281237;26;97943;-73
2024/04/12 05:43:16;;;;;;;;;50.00;39.25;;;;;-143.90;100.00;76226.72;5271091;26;98659;-73
2024/04/12 05:45:50;;;;;;;;;42.50;36.75;;;;;-143.90;100.00;76152.28;5282044;26;104695;-73
2024/04/12 05:48:18;;;;;;;;;41.50;37.25;;;;;-143.90;100.00;76079.91;5276022;26;98157;-73
2024/04/12 05:50:49;;;;;;;;;38.00;32.00;;;;;-143.90;100.00;76013.75;5274710;26;98411;-73
2024/04/12 05:53:18;;;;;;;;;40.25;33.75;;;;;-143.90;100.00;75959.97;5266017;26;98369;-73
2024/04/12 05:55:45;;;;;;;;;45.00;37.75;;;;;-143.90;100.00;75885.53;5268921;26;99952;-73
2024/04/12 05:58:14;;;;;;;;;43.50;37.25;;;;;-143.90;100.00;75825.56;5279884;26;98027;-73
2024/04/12 06:00:47;;;;;;;;;34.00;32.75;;;;;-143.90;100.00;75763.53;5274918;26;97765;-73
2024/04/12 06:03:14;;;;;;;;;39.75;33.00;;;;;-143.90;100.00;75751.13;5265230;26;98480;-73
2024/04/12 06:05:55;;;;;;;;;32.75;31.75;;;;;-143.90;100.00;75713.91;5274969;26;106856;-72
2024/04/12 06:08:25;;;;;;;;;34.50;32.25;;;;;-143.90;100.00;75689.09;5275380;26;98371;-72
2024/04/12 06:10:55;;;;;;;;;34.25;29.75;;;;;-143.90;100.00;75689.09;5272459;26;99958;-73
2024/04/12 06:13:24;;;;;;;;;30.50;29.75;;;;;-143.90;100.00;75699.44;5274467;26;98691;-73
2024/04/12 06:15:54;;;;;;;;;27.00;22.75;;;;;-143.90;99.86;75726.31;5278808;26;99761;-73
2024/04/12 06:18:21;;;;;;;;;26.50;24.75;;;;;-143.90;100.00;75738.72;5281214;26;98262;-73
2024/04/12 06:20:48;;;;;;;;;30.25;29.00;;;;;-143.90;99.97;75730.47;5280164;26;98228;-73
2024/04/12 06:23:19;;;;;;;;;32.75;29.25;;;;;-143.90;99.48;75730.47;5270725;26;98496;-73
2024/04/12 06:25:49;;;;;;;;;29.00;27.00;;;;;-143.90;98.87;75742.88;5279509;26;104425;-73
2024/04/12 06:28:19;;;;;;;;;28.25;28.25;;;;;-143.90;98.56;75749.06;5281071;26;98106;-74
2024/04/12 06:30:48;;;;;;;;;24.00;23.75;;;;;-143.90;98.97;75759.41;5275670;26;97927;-73
2024/04/12 06:33:23;;;;;;;;;26.25;22.50;;;;;-143.90;98.27;75773.88;5265238;26;100029;-73
2024/04/12 06:35:53;;;;;;;;;24.50;24.00;;;;;-143.90;98.58;75792.50;5271054;26;104267;-73
2024/04/12 06:38:22;;;;;;;;;27.75;26.00;;;;;-143.90;98.45;75809.03;5279282;26;98319;-72
2024/04/12 06:40:53;;;;;;;;;16.25;15.75;;;;;-143.90;95.35;75825.56;5272864;26;98108;-73
2024/04/12 06:43:23;;;;;;;;;40.00;35.50;;;;;-143.90;97.14;75837.97;5277773;26;101534;-72
2024/04/12 06:46:08;;;;;;;;;28.00;26.50;;;;;-143.90;97.69;75837.97;5274937;26;99895;-73
2024/04/12 06:48:36;;;;;;;;;27.00;23.75;;;;;-143.90;97.63;75840.03;5279869;26;97837;-72
2024/04/12 06:51:11;;;;;;;;;35.00;32.25;;;;;-143.90;97.73;75856.59;5273832;26;97957;-72
2024/04/12 06:53:44;;;;;;;;;34.00;30.75;;;;;-143.90;98.34;75869.00;5278487;26;104772;-73
2024/04/12 06:56:15;;;;;;;;;26.75;24.75;;;;;-143.90;97.25;75858.66;5275874;26;99761;-72
2024/04/12 06:58:46;;;;;;;;;30.25;27.00;;;;;-143.90;97.20;75844.19;5273917;26;98491;-72
2024/04/12 07:01:15;;;;;;;;;29.50;28.25;;;;;-143.90;96.63;75821.44;5269583;26;102599;-72
2024/04/12 07:03:45;;;;;;;;;26.00;23.25;;;;;-143.90;95.76;75800.75;5273319;26;98194;-73
2024/04/12 07:06:14;;;;;;;;;27.25;24.00;;;;;-143.90;95.13;75794.56;5279318;26;104635;-73
2024/04/12 07:08:50;;;;;;;;;24.00;22.00;;;;;-143.90;94.42;75780.09;5274306;26;98046;-73
2024/04/12 07:11:21;;;;;;;;;34.50;32.50;;;;;-143.90;90.97;75769.75;5268797;26;97968;-73
2024/04/12 07:13:53;;;;;;;;;30.25;27.50;;;;;-143.90;91.84;75759.41;5278761;26;98357;-72
2024/04/12 07:16:20;;;;;;;;;24.00;24.00;;;;;-143.90;91.32;75759.41;5277729;26;99807;-73
2024/04/12 07:18:49;;;;;;;;;29.50;28.25;;;;;-143.90;90.36;75769.75;5278553;26;98520;-73
2024/04/12 07:21:18;;;;;;;;;33.50;29.25;;;;;-143.90;90.62;75775.94;5267298;26;98095;-73
2024/04/12 07:23:49;;;;;;;;;30.00;26.50;;;;;-143.90;90.85;75775.94;5275299;26;98147;-72
2024/04/12 07:26:24;;;;;;;;;27.75;24.25;;;;;-143.90;89.77;75751.13;5274677;26;105125;-73
2024/04/12 07:28:58;;;;;;;;;23.50;21.25;;;;;-143.90;87.69;75734.59;5273159;26;97982;-73
2024/04/12 07:31:34;;;;;;;;;29.25;27.25;;;;;-143.90;87.23;75709.78;5275798;26;98156;-73
2024/04/12 07:34:02;;;;;;;;;39.75;32.75;;;;;-143.90;80.11;75701.50;5279925;26;98639;-73
2024/04/12 07:36:33;;;;;;;;;38.75;33.25;;;;;-143.90;81.88;75730.47;5278687;26;99969;-73
2024/04/12 07:39:05;;;;;;;;;37.25;31.25;;;;;-143.90;82.60;75722.19;5270553;26;99118;-73
2024/04/12 07:41:43;;;;;;;;;30.50;26.75;;;;;-143.90;82.65;75726.31;5281033;26;98370;-73
2024/04/12 07:44:13;;;;;;;;;23.75;21.75;;;;;-143.90;84.30;75722.19;5282057;26;99439;-73
2024/04/12 07:46:49;;;;;;;;;24.50;23.50;;;;;-143.90;84.21;75693.25;5272974;26;102421;-73
2024/04/12 07:49:17;;;;;;;;;23.00;22.00;;;;;-143.90;84.24;75656.03;5266789;26;98254;-73
2024/04/12 07:51:45;;;;;;;;;22.25;20.00;;;;;-143.90;79.07;75627.06;5272808;26;98381;-73
2024/04/12 07:54:12;;;;;;;;;38.50;30.00;;;;;-143.90;74.89;75622.94;5278468;26;98320;-73
2024/04/12 07:56:43;;;;;;;;;32.25;27.00;;;;;-143.90;71.88;75602.25;5276969;26;99936;-73
2024/04/12 07:59:15;;;;;;;;;20.00;18.25;;;;;-143.90;60.58;75598.13;5271487;26;98688;-72
2024/04/12 08:01:45;;;;;;;;;32.50;30.25;;;;;-143.90;55.87;75618.81;5275849;26;98455;-72
2024/04/12 08:04:22;;;;;;;;;19.50;18.75;;;;;-143.90;53.86;75589.84;5266746;26;103790;-73
2024/04/12 08:06:57;;;;;;;;;21.75;19.50;;;;;-143.90;51.50;75591.94;5276902;26;104448;-73
2024/04/12 08:09:34;;;;;;;;;21.25;21.00;;;;;-143.90;52.46;75585.72;5246847;26;98686;-73
2024/04/12 08:12:17;;;;;;;;;22.50;21.25;;;;;-143.90;47.78;75589.84;5278532;26;98590;-73
2024/04/12 08:14:55;;;;;;;;;20.50;16.25;;;;;-143.90;50.33;75569.19;5278317;26;98380;-73
2024/04/12 08:17:24;;;;;;;;;15.00;13.50;;;;;-143.90;50.48;75538.16;5275056;26;104309;-73
2024/04/12 08:20:12;;;;;;;;;17.25;14.50;;;;;-143.90;50.05;75507.16;5280522;26;98866;-73
2024/04/12 08:22:42;;;;;;;;;17.00;15.00;;;;;-143.90;50.24;75480.28;5275217;26;98192;-73
2024/04/12 08:25:10;;;;;;;;;11.25;11.00;;;;;-143.90;49.38;75465.81;5274562;26;97926;-73
2024/04/12 08:27:36;;;;;;;;;19.00;17.50;;;;;-143.90;46.60;75459.59;5278750;26;100075;-73
2024/04/12 08:30:13;;;;;;;;;19.00;15.00;;;;;-143.90;48.66;75441.00;5277700;26;98280;-72
2024/04/12 08:32:48;;;;;;;;;18.00;16.00;;;;;-143.90;46.90;75428.59;5275268;26;98066;-73
2024/04/12 08:35:24;;;;;;;;;12.25;12.00;;;;;-143.90;46.14;75420.31;5263377;26;98382;-72
2024/04/12 08:37:52;;;;;;;;;14.25;11.00;;;;;-143.90;43.81;75412.03;5273829;26;106701;-73
2024/04/12 08:40:24;;;;;;;;;13.50;13.00;;;;;-143.90;43.57;75407.91;5278334;26;98372;-73
2024/04/12 08:43:08;;;;;;;;;11.50;11.00;;;;;-143.90;42.94;75389.31;5272657;26;99751;-72
2024/04/12 08:45:43;;;;;;;;;9.75;8.50;;;;;-143.90;43.23;75378.97;5270865;26;102077;-73
2024/04/12 08:48:12;;;;;;;;;8.00;7.25;;;;;-143.90;44.12;75350.03;5270510;26;99618;-72
2024/04/12 08:50:39;;;;;;;;;12.50;11.75;;;;;-143.90;43.33;75339.69;5273383;26;97952;-72
2024/04/12 08:53:15;;;;;;;;;12.00;11.25;;;;;-143.90;43.72;75329.34;5254870;26;98030;-72
2024/04/12 08:55:45;;;;;;;;;11.75;10.25;;;;;-143.90;43.41;75312.81;5279395;26;98385;-72
2024/04/12 08:58:20;;;;;;;;;15.75;14.75;;;;;-143.90;41.58;75285.94;5280251;26;103740;-73
2024/04/12 09:00:52;;;;;;;;;14.00;12.50;;;;;-143.90;41.37;75290.06;5277691;26;105440;-74
2024/04/12 09:03:26;;;;;;;;;13.50;12.25;;;;;-143.90;40.34;75288.00;5275949;26;98172;-74
2024/04/12 09:05:54;;;;;;;;;13.50;12.00;;;;;-143.90;41.95;75269.38;5283815;26;99558;-73
2024/04/12 09:08:28;;;;;;;;;6.50;6.50;;;;;-143.90;42.42;75246.66;5273322;26;99964;-73
2024/04/12 09:11:00;;;;;;;;;9.00;8.67;;;;;-143.90;41.85;75228.03;5270094;26;98279;-73
2024/04/12 09:13:32;;;;;;;;;13.00;13.00;;;;;-143.90;39.67;75221.84;5281087;26;101772;-74
2024/04/12 09:16:03;;;;;;;;;12.50;12.00;;;;;-143.90;40.54;75219.78;5269429;26;98901;-74
2024/04/12 09:18:44;;;;;;;;;15.50;13.00;;;;;-143.90;39.46;75223.91;5279082;26;101250;-73
2024/04/12 09:21:36;;;;;;;;;13.00;10.50;;;;;-143.90;40.34;75215.63;5267387;26;97995;-72
2024/04/12 09:24:09;;;;;;;;;6.67;6.33;;;;;-143.90;41.11;75180.50;5274548;26;98220;-73
2024/04/12 09:26:55;;;;;;;;;9.75;9.25;;;;;-143.90;40.50;75155.69;5281763;26;97882;-72
2024/04/12 09:29:27;;;;;;;;;14.75;13.00;;;;;-143.90;39.95;75155.69;5269967;26;110094;-72
2024/04/12 09:34:55;;;;;;;;;24.00;20.00;;;;;-143.90;38.09;75163.94;5279259;26;98285;-74
2024/04/12 09:37:29;;;;;;;;;16.25;15.75;;;;;-143.90;38.06;75180.50;5275380;26;98037;-74
2024/04/12 09:42:47;;;;;;;;;10.25;10.00;;;;;-143.90;39.13;75137.06;5278535;26;102803;-73
2024/04/12 09:45:21;;;;;;;;;10.00;8.00;;;;;-143.90;38.31;75126.75;5270332;26;101714;-74
2024/04/12 10:38:05;;;;;;;;;5.00;4.00;;;;;-143.90;36.75;74942.75;5274810;26;98198;-73
2024/04/12 10:40:48;;;;;;;;;7.00;6.00;;;;;-143.90;35.26;74934.47;5282021;26;99937;-73
2024/04/12 10:43:14;;;;;;;;;6.00;5.33;;;;;-143.90;35.72;74940.69;5263993;26;98509;-73
2024/04/12 10:45:48;;;;;;;;;10.00;9.33;;;;;-143.90;35.49;74932.41;5280812;26;100430;-72
2024/04/12 10:48:18;;;;;;;;;12.00;11.67;;;;;-143.90;35.09;74944.81;5277051;26;97920;-73
2024/04/12 10:50:48;;;;;;;;;13.67;12.00;;;;;-143.90;35.13;74948.94;5280841;26;98303;-73
2024/04/12 10:53:17;;;;;;;;;9.67;8.33;;;;;-143.90;34.80;74936.53;5267718;26;98620;-73
2024/04/12 10:55:45;;;;;;;;;7.33;7.00;;;;;-143.90;35.01;74955.16;5280196;26;104559;-73
2024/04/12 10:58:14;;;;;;;;;7.33;7.00;;;;;-143.90;35.15;74957.22;5279219;26;98294;-73
2024/04/12 11:00:47;;;;;;;;;7.00;5.67;;;;;-143.90;35.26;74936.53;5279261;26;98109;-73
2024/04/12 11:03:24;;;;;;;;;2.00;1.00;;;;;-143.90;35.73;74920.00;5272360;26;101042;-73
2024/04/12 11:06:03;;;;;;;;;29.25;17.50;;;;;-143.90;34.72;74913.81;5270178;26;104607;-73
2024/04/12 11:08:31;;;;;;;;;13.00;10.00;;;;;-143.90;35.36;74932.41;5271268;26;98643;-73
2024/04/12 11:11:15;;;;;;;;;9.67;8.33;;;;;-143.90;35.33;74907.59;5267627;26;98854;-73
2024/04/12 11:13:47;;;;;;;;;11.67;7.00;;;;;-143.90;35.12;74899.34;5274763;26;98673;-73
2024/04/12 11:33:04;;;;;;;;;15.00;13.75;;;;;-143.90;34.32;74882.78;5268063;26;97899;-73
2024/04/12 11:35:34;;;;;;;;;14.00;13.25;;;;;-143.90;34.52;74880.72;5280604;26;97943;-73
2024/04/12 11:38:04;;;;;;;;;15.50;14.50;;;;;-143.90;34.32;74893.13;5280458;26;99749;-73
2024/04/12 11:40:37;;;;;;;;;14.67;13.00;;;;;-143.90;34.51;74893.13;5277615;26;98382;-72
2024/04/12 11:43:06;;;;;;;;;11.33;10.00;;;;;-143.90;35.03;74886.94;5257599;26;98371;-73
2024/04/12 11:45:37;;;;;;;;;11.33;10.33;;;;;-143.90;35.14;74899.34;5265790;26;98598;-73
2024/04/12 11:48:04;;;;;;;;;12.00;11.00;;;;;-143.90;35.64;74934.47;5274050;26;98869;-73
2024/04/12 11:50:35;;;;;;;;;10.67;9.00;;;;;-143.90;35.78;74901.41;5270911;26;98371;-73
2024/04/12 11:53:10;;;;;;;;;15.00;11.33;;;;;-143.90;35.48;74874.53;5260769;26;99212;-73
2024/04/12 11:55:39;;;;;;;;;12.75;11.00;;;;;-143.90;35.71;74895.19;5268235;26;98041;-73
2024/04/12 11:58:08;;;;;;;;;11.33;10.00;;;;;-143.90;35.83;74858.00;5277680;26;99749;-73
2024/04/12 12:00:37;;;;;;;;;8.67;8.00;;;;;-143.90;35.93;74816.66;5279246;26;97759;-73
2024/04/12 12:03:04;;;;;;;;;16.00;16.00;;;;;-143.90;35.93;74785.63;5270621;26;98370;-72
2024/04/12 12:05:37;;;;;;;;;26.25;20.00;;;;;-143.90;35.13;74783.56;5273189;26;98293;-73
2024/04/12 12:08:05;;;;;;;;;23.25;19.75;;;;;-143.90;35.16;74756.69;5274453;26;99741;-73
2024/04/12 12:10:37;;;;;;;;;13.00;12.33;;;;;-143.90;35.11;74775.31;5280677;26;98080;-73
2024/04/12 12:13:04;;;;;;;;;12.00;11.33;;;;;-143.90;35.81;74754.63;5267456;26;97923;-72
2024/04/12 12:15:31;;;;;;;;;11.00;11.00;;;;;-143.90;35.54;74742.22;5276756;26;98478;-73
2024/04/12 12:17:58;;;;;;;;;7.33;7.00;;;;;-143.90;35.18;74740.16;5281219;26;99778;-73
2024/04/12 12:20:25;;;;;;;;;9.67;9.67;;;;;-143.90;35.00;74733.97;5271924;26;98299;-72
2024/04/12 12:22:54;;;;;;;;;9.33;8.33;;;;;-143.90;35.05;74754.63;5276538;26;98229;-72
2024/04/12 12:25:21;;;;;;;;;11.67;10.33;;;;;-143.90;34.94;74791.84;5270100;26;98556;-73
2024/04/12 12:27:49;;;;;;;;;9.00;8.00;;;;;-143.90;35.32;74791.84;5257001;26;99928;-74
2024/04/12 12:30:18;;;;;;;;;7.00;6.67;;;;;-143.90;35.39;74785.63;5276600;26;98151;-73
2024/04/12 12:32:46;;;;;;;;;9.67;8.67;;;;;-143.90;35.06;74791.84;5274438;26;98105;-73
2024/04/12 12:35:22;;;;;;;;;11.33;9.33;;;;;-143.90;35.57;74775.31;5264531;26;98678;-73
2024/04/12 12:37:49;;;;;;;;;8.67;7.00;;;;;-143.90;35.13;74773.22;5269570;26;104653;-72
2024/04/12 12:40:22;;;;;;;;;10.00;9.67;;;;;-143.90;34.93;74775.31;5267733;26;100308;-73